Terminal Aerodrome Forecast
Issued by NWS

Home | Current Version | Previous Version | Graphics & Text | Print | Product List | Glossary On
Versions: 1 2 3 4 5 6 7 8 9 10 11 12
072
FTUS43 KBIS 281721
TAFDIK
TAF
KDIK 281721Z 2818/2918 12008KT P6SM SKC
     FM290600 15009KT P6SM SKC
     FM291600 15013G19KT P6SM SKC=

USA.gov is the U.S. government's official web portal to all federal, state and local government web resources and services.